Time;durP1;ratioP1;P1;durP2;ratioP2;P2;SDS_P1;SDS_P2;PMS_P1;PMS_P2;Temp;Humidity;BMP_temperature;BMP_pressure;BME280_temperature;BME280_humidity;BME280_pressure;Samples;Min_cycle;Max_cycle;Signal;HPM_P1;HPM_P2
2022/02/14 00:02:19;;;;;;;10.6;6;;;;;;;-2.22;66.97168;934.6747;;;;
2022/02/14 00:04:46;;;;;;;10.2;5.9;;;;;;;-2.13;67.07617;934.6047;;;;
2022/02/14 00:07:22;;;;;;;9.2;5.2;;;;;;;-2.09;66.77148;934.6558;;;;
2022/02/14 00:09:48;;;;;;;7.3;4.8;;;;;;;-2.43;67.91309;934.5584;;;;
2022/02/14 00:12:14;;;;;;;5.9;3.8;;;;;;;-2.59;68.4082;934.5526;;;;
2022/02/14 00:14:45;;;;;;;7.8;5.1;;;;;;;-2.42;68.00488;934.475;;;;
2022/02/14 00:17:35;;;;;;;7.1;4;;;;;;;-2.31;67.93359;934.5937;;;;
2022/02/14 00:20:13;;;;;;;8;4.6;;;;;;;-2.27;67.27441;934.4572;;;;
2022/02/14 00:22:50;;;;;;;10.8;4.5;;;;;;;-2.28;67.15137;934.4783;;;;
2022/02/14 00:25:28;;;;;;;5.6;3.9;;;;;;;-2.28;66.87402;934.4277;;;;
2022/02/14 00:28:05;;;;;;;15.7;14.3;;;;;;;-2.4;67.20996;934.5284;;;;
2022/02/14 00:30:42;;;;;;;8.8;7.5;;;;;;;-2.35;67.37207;934.4911;;;;
2022/02/14 00:33:09;;;;;;;7.4;5.2;;;;;;;-2.36;67.4375;934.5256;;;;
2022/02/14 00:35:45;;;;;;;8.4;5.3;;;;;;;-2.49;68.32324;934.56;;;;
2022/02/14 00:38:14;;;;;;;7.8;5.1;;;;;;;-2.45;68.35352;934.5708;;;;
2022/02/14 00:40:41;;;;;;;11;5.4;;;;;;;-2.53;68.62793;934.4996;;;;
2022/02/14 00:43:16;;;;;;;8.6;5.1;;;;;;;-2.6;68.59375;934.552;;;;
2022/02/14 00:45:46;;;;;;;8.1;5;;;;;;;-2.6;68.25195;934.4728;;;;
2022/02/14 00:48:14;;;;;;;8.3;4.7;;;;;;;-2.6;68.35156;934.5981;;;;
2022/02/14 00:50:39;;;;;;;6;3.9;;;;;;;-2.67;68.28613;934.532;;;;
2022/02/14 00:53:14;;;;;;;6.7;3.9;;;;;;;-2.65;68.13086;934.5787;;;;
2022/02/14 00:55:50;;;;;;;6.9;4.1;;;;;;;-2.71;68.67578;934.4894;;;;
2022/02/14 00:58:17;;;;;;;5.4;3.8;;;;;;;-2.73;68.28516;934.5972;;;;
2022/02/14 01:00:54;;;;;;;5.6;3.4;;;;;;;-2.71;68.13379;934.5159;;;;
2022/02/14 01:03:39;;;;;;;5.8;3.8;;;;;;;-2.74;68.20605;934.5469;;;;
2022/02/14 01:06:13;;;;;;;5.4;3.6;;;;;;;-2.74;68.27246;934.5117;;;;
2022/02/14 01:08:51;;;;;;;6.5;3.7;;;;;;;-2.66;68.375;934.5549;;;;
2022/02/14 01:11:17;;;;;;;6;3.7;;;;;;;-2.78;68.58789;934.5475;;;;
2022/02/14 01:13:48;;;;;;;7.7;4.3;;;;;;;-2.67;68.42676;934.5262;;;;
2022/02/14 01:16:17;;;;;;;6.4;3.9;;;;;;;-2.55;68.34668;934.6535;;;;
2022/02/14 01:18:48;;;;;;;6.9;4;;;;;;;-2.96;69.54102;934.6478;;;;
2022/02/14 01:21:13;;;;;;;5.2;3.7;;;;;;;-3.23;70.21582;934.6297;;;;
2022/02/14 01:23:42;;;;;;;5.7;3.8;;;;;;;-3.1;70.39355;934.6473;;;;
2022/02/14 01:26:14;;;;;;;4.4;3.1;;;;;;;-2.98;69.82617;934.632;;;;
2022/02/14 01:28:46;;;;;;;6.1;3.4;;;;;;;-3;69.98828;934.6917;;;;
2022/02/14 01:31:15;;;;;;;5.6;3.4;;;;;;;-3.11;70.56738;934.6334;;;;
2022/02/14 01:33:47;;;;;;;4.6;3;;;;;;;-3.25;70.8877;934.618;;;;
2022/02/14 01:36:18;;;;;;;4.9;3;;;;;;;-3.4;71.14844;934.5975;;;;
2022/02/14 01:38:46;;;;;;;13.2;4.1;;;;;;;-3.27;70.73926;934.562;;;;
2022/02/14 01:41:11;;;;;;;3.5;2.6;;;;;;;-3.14;70.3291;934.5882;;;;
2022/02/14 01:43:41;;;;;;;3.6;2.6;;;;;;;-3.25;70.24609;934.5151;;;;
2022/02/14 01:46:05;;;;;;;3.3;2.3;;;;;;;-3.35;70.74902;934.4894;;;;
2022/02/14 01:48:31;;;;;;;4.3;2.5;;;;;;;-3.37;70.7334;934.5092;;;;
2022/02/14 01:50:56;;;;;;;4.2;2.6;;;;;;;-3.42;70.86914;934.4816;;;;
2022/02/14 01:53:23;;;;;;;12.5;3.8;;;;;;;-3.42;71.14453;934.4059;;;;
2022/02/14 01:55:50;;;;;;;3.7;2.3;;;;;;;-3.27;70.56348;934.4014;;;;
2022/02/14 01:58:19;;;;;;;4.4;2.6;;;;;;;-3.28;69.90918;934.4059;;;;
2022/02/14 02:00:44;;;;;;;3.8;2.5;;;;;;;-3.42;70.01855;934.3237;;;;
2022/02/14 02:03:09;;;;;;;3;2.1;;;;;;;-3.56;70.34961;934.3309;;;;
2022/02/14 02:05:38;;;;;;;3.6;2.2;;;;;;;-3.56;69.83008;934.3051;;;;
2022/02/14 02:08:09;;;;;;;3.7;2.1;;;;;;;-3.51;69.7168;934.3156;;;;
2022/02/14 02:10:43;;;;;;;3.3;2.2;;;;;;;-3.48;69.79785;934.2961;;;;
2022/02/14 02:13:12;;;;;;;6;2.8;;;;;;;-3.55;70.26074;934.2711;;;;
2022/02/14 02:15:47;;;;;;;5.4;2.5;;;;;;;-3.63;70.67969;934.195;;;;
2022/02/14 02:18:18;;;;;;;4.5;2.3;;;;;;;-3.7;71.30664;934.202;;;;
2022/02/14 02:20:57;;;;;;;2.2;1.8;;;;;;;-3.75;70.04004;934.165;;;;
2022/02/14 02:23:29;;;;;;;11.5;3.2;;;;;;;-3.42;68.21777;934.1167;;;;
2022/02/14 02:25:56;;;;;;;7.8;2.1;;;;;;;-3.3;68.2373;934.1114;;;;
2022/02/14 02:28:21;;;;;;;3.3;2.3;;;;;;;-3.35;68.25;934.0814;;;;
2022/02/14 02:30:57;;;;;;;2.8;2.3;;;;;;;-3.24;67.49512;934.0097;;;;
2022/02/14 02:33:28;;;;;;;3.2;2.1;;;;;;;-3.23;67.91699;934.0446;;;;
2022/02/14 02:35:54;;;;;;;2.4;1.8;;;;;;;-3.25;67.68164;933.9672;;;;
2022/02/14 02:38:19;;;;;;;4.9;3;;;;;;;-3.28;68.99121;933.9864;;;;
2022/02/14 02:40:52;;;;;;;4.1;2.5;;;;;;;-3.32;68.8418;933.9914;;;;
2022/02/14 02:43:21;;;;;;;3.1;1.9;;;;;;;-2.84;63.70898;933.895;;;;
2022/02/14 02:45:46;;;;;;;5.5;2.9;;;;;;;-2.84;65.71191;933.9205;;;;
2022/02/14 02:48:15;;;;;;;4.8;3;;;;;;;-2.85;65.78613;933.9113;;;;
2022/02/14 02:51:01;;;;;;;5;2.3;;;;;;;-2.79;64.80176;933.9072;;;;
2022/02/14 02:53:06;;;;;;;3.3;2.2;;;;;;;-2.91;66.41992;933.9607;;;;
2022/02/14 02:55:31;;;;;;;4.3;2.1;;;;;;;-3.09;67.05566;933.8873;;;;
2022/02/14 02:58:03;;;;;;;5.4;2.8;;;;;;;-3.02;67.09863;933.9054;;;;
2022/02/14 03:00:30;;;;;;;5.1;3;;;;;;;-3.16;66.82129;933.8195;;;;
2022/02/14 03:03:04;;;;;;;8.7;3.5;;;;;;;-3.25;67.47168;933.8474;;;;
2022/02/14 03:05:36;;;;;;;6.2;2.5;;;;;;;-3.26;67.1377;933.8287;;;;
2022/02/14 03:08:01;;;;;;;4.8;2.2;;;;;;;-3.45;66.62109;933.7783;;;;
2022/02/14 03:10:33;;;;;;;3.4;2.3;;;;;;;-3.52;66.75488;933.8077;;;;
2022/02/14 03:13:03;;;;;;;4.2;2.5;;;;;;;-3.48;66.79297;933.8398;;;;
2022/02/14 03:15:41;;;;;;;3.3;2.5;;;;;;;-3.53;67.22754;933.7505;;;;
2022/02/14 03:18:06;;;;;;;2.6;2.1;;;;;;;-3.44;66.10254;933.7767;;;;
2022/02/14 03:20:37;;;;;;;2.7;2.2;;;;;;;-3.34;65.87695;933.7491;;;;
2022/02/14 03:23:02;;;;;;;4.5;2.5;;;;;;;-3.31;65.89258;933.7435;;;;
2022/02/14 03:25:30;;;;;;;8.9;3.3;;;;;;;-3.32;66.71875;933.6434;;;;
2022/02/14 03:27:55;;;;;;;4.7;3;;;;;;;-3.38;67.80371;933.6863;;;;
2022/02/14 03:30:26;;;;;;;9.8;3.3;;;;;;;-3.4;68.11035;933.7125;;;;
2022/02/14 03:32:55;;;;;;;5.3;2.8;;;;;;;-3.43;68.50391;933.6577;;;;
2022/02/14 03:35:20;;;;;;;5.4;2.8;;;;;;;-3.35;67.52246;933.6265;;;;
2022/02/14 03:37:45;;;;;;;4.3;2.4;;;;;;;-3.39;67.71484;933.5848;;;;
2022/02/14 03:40:16;;;;;;;3.8;2.4;;;;;;;-3.46;67.64844;933.5402;;;;
2022/02/14 03:42:44;;;;;;;5.2;2.7;;;;;;;-3.39;67.36035;933.5369;;;;
2022/02/14 03:45:09;;;;;;;5.2;2.7;;;;;;;-3.36;66.93457;933.4741;;;;
2022/02/14 03:47:37;;;;;;;5.6;3;;;;;;;-3.33;66.71875;933.5037;;;;
2022/02/14 03:50:02;;;;;;;5.1;2.8;;;;;;;-3.24;66.8877;933.5567;;;;
2022/02/14 03:52:31;;;;;;;4.9;2.6;;;;;;;-3.14;65.53125;933.5309;;;;
2022/02/14 03:54:59;;;;;;;5.4;3.5;;;;;;;-2.96;65.68066;933.4494;;;;
2022/02/14 03:57:25;;;;;;;6;2.9;;;;;;;-2.96;65.78223;933.508;;;;
2022/02/14 03:59:52;;;;;;;5.9;2.9;;;;;;;-3.02;66.43555;933.5525;;;;
2022/02/14 04:02:30;;;;;;;8.1;3.7;;;;;;;-3.27;67.29102;933.5386;;;;
2022/02/14 04:04:55;;;;;;;8.9;4.1;;;;;;;-3.27;67.32422;933.4802;;;;
2022/02/14 04:07:20;;;;;;;8.3;3.9;;;;;;;-3.31;67.03027;933.4805;;;;
2022/02/14 04:09:46;;;;;;;8.7;4.3;;;;;;;-3.19;67.03809;933.4451;;;;
2022/02/14 04:12:12;;;;;;;13.8;5.7;;;;;;;-3.16;66.87695;933.3748;;;;
2022/02/14 04:14:37;;;;;;;13.5;5.2;;;;;;;-3.09;66.58984;933.4395;;;;
2022/02/14 04:17:07;;;;;;;12.6;5.4;;;;;;;-3.05;66.04395;933.4319;;;;
2022/02/14 04:19:36;;;;;;;14.7;7.3;;;;;;;-3.14;66.62598;933.351;;;;
2022/02/14 04:22:08;;;;;;;13.6;7.2;;;;;;;-3.17;66.13477;933.4369;;;;
2022/02/14 04:24:33;;;;;;;13.3;7;;;;;;;-3;65.48828;933.3579;;;;
2022/02/14 04:26:58;;;;;;;16.4;7.3;;;;;;;-2.96;64.33105;933.3326;;;;
2022/02/14 04:29:29;;;;;;;11.4;6.3;;;;;;;-2.82;63.94434;933.3809;;;;
2022/02/14 04:32:02;;;;;;;13.5;6.3;;;;;;;-2.89;64.88477;933.3689;;;;
2022/02/14 04:34:31;;;;;;;7.3;4.2;;;;;;;-3;66.29492;933.3013;;;;
2022/02/14 04:36:57;;;;;;;8.2;4.9;;;;;;;-3.14;66.49414;933.3583;;;;
2022/02/14 04:39:29;;;;;;;8.1;4.2;;;;;;;-3.31;67.24023;933.3475;;;;
2022/02/14 04:41:54;;;;;;;7.5;4.1;;;;;;;-3.29;67.67578;933.2841;;;;
2022/02/14 04:44:24;;;;;;;8.9;4.4;;;;;;;-3.4;68.1543;933.2524;;;;
2022/02/14 04:46:49;;;;;;;7.7;4.1;;;;;;;-3.38;67.82715;933.2435;;;;
2022/02/14 04:49:14;;;;;;;7.5;4.9;;;;;;;-3.2;67.28027;933.1808;;;;
2022/02/14 04:51:39;;;;;;;12.7;5.4;;;;;;;-3.19;67.49121;933.2505;;;;
2022/02/14 04:54:06;;;;;;;10.5;6.1;;;;;;;-3.19;68.11035;933.2396;;;;
2022/02/14 04:56:32;;;;;;;17.2;10.7;;;;;;;-3.21;68.39551;933.222;;;;
2022/02/14 04:59:00;;;;;;;15.8;8.8;;;;;;;-3.19;68.26367;933.2097;;;;
2022/02/14 05:01:27;;;;;;;13.6;7.9;;;;;;;-3.14;67.63281;933.1886;;;;
2022/02/14 05:03:56;;;;;;;12.5;8.4;;;;;;;-3.09;67.59766;933.1897;;;;
2022/02/14 05:06:24;;;;;;;12.1;7.4;;;;;;;-2.87;65.66309;933.1621;;;;
2022/02/14 05:08:49;;;;;;;9.1;5.7;;;;;;;-2.88;65.04199;933.1803;;;;
2022/02/14 05:11:18;;;;;;;7.6;4.4;;;;;;;-2.53;61.75195;933.146;;;;
2022/02/14 05:13:45;;;;;;;6.9;3.4;;;;;;;-2.4;60.25293;933.1326;;;;
2022/02/14 05:16:23;;;;;;;5.5;3.1;;;;;;;-2.19;58.47754;933.0999;;;;
2022/02/14 05:18:47;;;;;;;8.5;3.9;;;;;;;-2.12;58.84082;933.1195;;;;
2022/02/14 05:21:16;;;;;;;14;3.1;;;;;;;-1.76;54.53223;933.1245;;;;
2022/02/14 05:23:41;;;;;;;8.4;3.4;;;;;;;-1.87;55.78223;933.1395;;;;
2022/02/14 05:26:11;;;;;;;10.2;5;;;;;;;-1.86;57.75879;933.1167;;;;
2022/02/14 05:28:40;;;;;;;10.7;6.4;;;;;;;-1.91;60.09082;932.9964;;;;
2022/02/14 05:31:05;;;;;;;15.2;7.4;;;;;;;-2.24;62.31641;933.1255;;;;
2022/02/14 05:33:36;;;;;;;15.1;6;;;;;;;-2.21;59.43945;933.063;;;;
2022/02/14 05:36:06;;;;;;;11;5.5;;;;;;;-2.11;61.12598;933.0474;;;;
2022/02/14 05:38:34;;;;;;;10.5;5.1;;;;;;;-2.1;60.65137;933.0715;;;;
2022/02/14 05:41:00;;;;;;;6.7;4.3;;;;;;;-2.22;59.88086;933.1015;;;;
2022/02/14 05:43:28;;;;;;;10.1;3.7;;;;;;;-2.02;55.21875;933.0298;;;;
2022/02/14 05:45:53;;;;;;;13.7;5.8;;;;;;;-1.77;56.28516;932.9667;;;;
2022/02/14 05:48:26;;;;;;;12.1;5.4;;;;;;;-1.59;55.50879;933.0811;;;;
2022/02/14 05:50:46;;;;;;;11.6;5.3;;;;;;;-1.58;55.26758;933.0249;;;;
2022/02/14 05:53:17;;;;;;;16.6;6.2;;;;;;;-1.56;55.4248;933.0103;;;;
2022/02/14 05:55:42;;;;;;;7.6;3.8;;;;;;;-1.67;55.49805;933.038;;;;
2022/02/14 05:58:10;;;;;;;11.5;4.1;;;;;;;-1.55;55.61426;933.0705;;;;
2022/02/14 06:00:35;;;;;;;9.4;4.2;;;;;;;-1.59;56.19727;933.1132;;;;
2022/02/14 06:03:06;;;;;;;16.1;6.2;;;;;;;-1.55;56.18066;933.0932;;;;
2022/02/14 06:05:39;;;;;;;10;4.5;;;;;;;-1.59;56.23047;933.0983;;;;
2022/02/14 06:08:11;;;;;;;8.5;4.7;;;;;;;-1.56;56.12305;933.0153;;;;
2022/02/14 06:10:42;;;;;;;8.5;4.4;;;;;;;-1.71;56.5918;933.0364;;;;
2022/02/14 06:13:12;;;;;;;13.7;4.5;;;;;;;-1.6;56.62891;933.0053;;;;
2022/02/14 06:15:49;;;;;;;11.7;4.7;;;;;;;-1.64;56.94531;932.9903;;;;
2022/02/14 06:18:18;;;;;;;7.7;4.9;;;;;;;-1.74;57.03223;932.9562;;;;
2022/02/14 06:20:43;;;;;;;10.2;5;;;;;;;-1.65;57.77637;933.0305;;;;
2022/02/14 06:23:13;;;;;;;11.3;4.6;;;;;;;-1.7;57.61328;932.9931;;;;
2022/02/14 06:25:38;;;;;;;8.7;5.1;;;;;;;-1.66;57.75195;933.026;;;;
2022/02/14 06:28:09;;;;;;;8.7;4.3;;;;;;;-1.73;57.93164;933.0308;;;;
2022/02/14 06:30:34;;;;;;;13.7;4.2;;;;;;;-1.59;57.52832;933.072;;;;
2022/02/14 06:33:04;;;;;;;10;3.9;;;;;;;-1.55;56.13672;933.0595;;;;
2022/02/14 06:35:30;;;;;;;6.3;2.9;;;;;;;-1.44;54.62988;933.0999;;;;
2022/02/14 06:37:55;;;;;;;8.4;3.2;;;;;;;-1.15;53.36914;933.0236;;;;
2022/02/14 06:40:28;;;;;;;19.4;4.4;;;;;;;-1.06;54.6123;932.9939;;;;
2022/02/14 06:43:00;;;;;;;9.1;4.1;;;;;;;-0.97;53.20215;932.9833;;;;
2022/02/14 06:45:25;;;;;;;8.8;3.7;;;;;;;-0.88;53.58008;933.0432;;;;
2022/02/14 06:47:54;;;;;;;15.6;4.8;;;;;;;-0.75;52.90625;933.0201;;;;
2022/02/14 06:50:25;;;;;;;14;6.5;;;;;;;-0.68;51.61426;932.9653;;;;
2022/02/14 06:52:55;;;;;;;7.9;3.6;;;;;;;-0.61;51.75684;932.9411;;;;
2022/02/14 06:55:23;;;;;;;9.4;3.7;;;;;;;-0.57;52.16211;932.8906;;;;
2022/02/14 06:57:48;;;;;;;18.3;10.4;;;;;;;-0.48;51.22852;932.9703;;;;
2022/02/14 07:00:17;;;;;;;9.9;3.6;;;;;;;-0.39;50.3252;932.9351;;;;
2022/02/14 07:02:43;;;;;;;8.1;4;;;;;;;-0.1;48.32324;932.9339;;;;
2022/02/14 07:05:15;;;;;;;7.9;4.1;;;;;;;0.57;47.49609;932.8769;;;;
2022/02/14 07:07:38;;;;;;;17.1;6.9;;;;;;;1.28;46.88379;932.9077;;;;
2022/02/14 07:10:06;;;;;;;12.5;6.3;;;;;;;2.01;46.95117;932.8822;;;;
2022/02/14 07:12:32;;;;;;;21.3;10.3;;;;;;;2.29;43.94824;932.9113;;;;
2022/02/14 07:15:00;;;;;;;17.6;8.4;;;;;;;2.06;45.17871;932.8965;;;;
2022/02/14 07:17:36;;;;;;;7.3;3.9;;;;;;;2.47;42.11816;932.7434;;;;
2022/02/14 07:20:08;;;;;;;12.1;4.8;;;;;;;2.68;41.83691;932.7776;;;;
2022/02/14 07:22:40;;;;;;;7.1;2.5;;;;;;;3.77;39.86523;932.7438;;;;
2022/02/14 07:25:14;;;;;;;6;3.1;;;;;;;4.51;38.3584;932.7148;;;;
2022/02/14 07:27:39;;;;;;;8;2.7;;;;;;;5.28;36.62207;932.6486;;;;
2022/02/14 07:30:12;;;;;;;10.5;4.1;;;;;;;5.11;37.13672;932.6425;;;;
2022/02/14 07:32:37;;;;;;;15.3;5.7;;;;;;;6.06;36.80176;932.6203;;;;
2022/02/14 07:35:11;;;;;;;8.3;3.4;;;;;;;6.12;35.14551;932.6007;;;;
2022/02/14 07:37:39;;;;;;;13.2;4.6;;;;;;;5.3;34.74023;932.5622;;;;
2022/02/14 07:40:11;;;;;;;2.6;1.8;;;;;;;3.9;37.83008;932.5929;;;;
2022/02/14 07:42:37;;;;;;;14.4;3.5;;;;;;;5.27;36.57617;932.5223;;;;
2022/02/14 07:45:07;;;;;;;5;2.7;;;;;;;5.55;34.61328;932.5225;;;;
2022/02/14 07:47:33;;;;;;;5.8;2.2;;;;;;;5.37;35.14063;932.5463;;;;
2022/02/14 07:50:02;;;;;;;2.3;1.8;;;;;;;4.4;36.59082;932.4659;;;;
2022/02/14 07:52:26;;;;;;;3.9;1.7;;;;;;;4.33;37.48633;932.492;;;;
2022/02/14 07:54:52;;;;;;;4.3;1.8;;;;;;;4.93;34.78906;932.4878;;;;
2022/02/14 07:57:18;;;;;;;8.8;2.5;;;;;;;5.54;33.69922;932.3998;;;;
2022/02/14 07:59:43;;;;;;;6.4;2.4;;;;;;;5.94;33.19922;932.3106;;;;
2022/02/14 08:02:14;;;;;;;4.2;1.8;;;;;;;6.8;33.63965;932.2403;;;;
2022/02/14 08:04:46;;;;;;;2.8;1.6;;;;;;;5.35;35.09473;932.2658;;;;
2022/02/14 08:07:10;;;;;;;6.5;2.2;;;;;;;6.05;33.23047;932.2431;;;;
2022/02/14 08:09:39;;;;;;;3.7;2;;;;;;;7.01;30.56445;932.1462;;;;
2022/02/14 08:12:04;;;;;;;2.7;1.9;;;;;;;7.3;30.03027;932.1445;;;;
2022/02/14 08:14:28;;;;;;;5.9;2.4;;;;;;;6.8;31.22949;932.0354;;;;
2022/02/14 08:16:57;;;;;;;5.5;2.5;;;;;;;7.12;29.58691;932.1531;;;;
2022/02/14 08:19:22;;;;;;;3.3;1.9;;;;;;;6.94;28.08008;932.0667;;;;
2022/02/14 08:21:47;;;;;;;4.2;2.1;;;;;;;7.96;28.67969;932.0682;;;;
2022/02/14 08:24:17;;;;;;;4.8;2.1;;;;;;;7.79;29.06543;932.0061;;;;
2022/02/14 08:26:42;;;;;;;3.9;1.8;;;;;;;8.34;28.37598;931.9683;;;;
2022/02/14 08:29:12;;;;;;;6.9;2.3;;;;;;;8.84;28.86328;932.024;;;;
2022/02/14 08:31:45;;;;;;;2;1.4;;;;;;;8.27;30.05176;931.9874;;;;
2022/02/14 08:34:19;;;;;;;2.5;1.7;;;;;;;8.87;29.70703;931.9686;;;;
2022/02/14 08:36:45;;;;;;;3.4;1.8;;;;;;;8.53;30.49121;931.9286;;;;
2022/02/14 08:39:15;;;;;;;3.4;1.8;;;;;;;8.34;29.61426;932.0072;;;;
2022/02/14 08:41:46;;;;;;;5.7;1.9;;;;;;;7.71;29.95605;932.0631;;;;
2022/02/14 08:44:13;;;;;;;2.1;1.5;;;;;;;6.08;32.42969;932.0334;;;;
2022/02/14 08:46:39;;;;;;;4.2;1.9;;;;;;;6.1;32.75977;932.0433;;;;
2022/02/14 08:49:07;;;;;;;6.5;1.8;;;;;;;6.21;32.13477;932.0556;;;;
2022/02/14 08:51:32;;;;;;;9.2;2.4;;;;;;;6.23;30.8252;932.0424;;;;
2022/02/14 08:53:59;;;;;;;13.3;3.2;;;;;;;6.51;30.6875;931.9709;;;;
2022/02/14 08:56:24;;;;;;;18;3.9;;;;;;;6.54;31.11914;931.9769;;;;
2022/02/14 08:58:51;;;;;;;20.5;5;;;;;;;6.63;30.2666;931.9769;;;;
2022/02/14 09:01:17;;;;;;;12.7;3.5;;;;;;;6.67;29.56641;931.9924;;;;
2022/02/14 09:03:48;;;;;;;3;1.9;;;;;;;6.8;31.09277;931.9286;;;;
2022/02/14 09:06:18;;;;;;;5.7;2;;;;;;;7.12;32.20313;931.8864;;;;
2022/02/14 09:08:48;;;;;;;7.7;1.8;;;;;;;7.58;31.69434;931.8564;;;;
2022/02/14 09:11:21;;;;;;;8.7;1.8;;;;;;;8.16;31.22656;931.8403;;;;
2022/02/14 09:13:49;;;;;;;3.1;1.7;;;;;;;8.26;31.35742;931.7842;;;;
2022/02/14 09:16:22;;;;;;;3.4;1.7;;;;;;;7.19;32.63965;931.77;;;;
2022/02/14 09:18:49;;;;;;;7;1.7;;;;;;;7.87;32.06738;931.7346;;;;
2022/02/14 09:21:18;;;;;;;5.7;1.9;;;;;;;9.43;31.01074;931.6008;;;;
2022/02/14 09:23:43;;;;;;;4.7;1.7;;;;;;;10.22;27.87305;931.6113;;;;
2022/02/14 09:26:13;;;;;;;3.1;1.4;;;;;;;9.96;27.82227;931.5865;;;;
2022/02/14 09:28:39;;;;;;;4.4;1.6;;;;;;;11.37;27.10059;931.5095;;;;
2022/02/14 09:31:07;;;;;;;5.3;1.9;;;;;;;11.54;24.82227;931.5648;;;;
2022/02/14 09:33:38;;;;;;;6.8;3.7;;;;;;;12.31;24.44238;931.5404;;;;
2022/02/14 09:36:04;;;;;;;3.2;1.9;;;;;;;10.62;25.04297;931.563;;;;
2022/02/14 09:38:29;;;;;;;4.6;1.9;;;;;;;10.1;25.94824;931.4476;;;;
2022/02/14 09:40:59;;;;;;;4.5;1.7;;;;;;;10.48;25.41211;931.5135;;;;
2022/02/14 09:43:29;;;;;;;3.2;2;;;;;;;9.81;27.01367;931.497;;;;
2022/02/14 09:45:54;;;;;;;3.5;2.5;;;;;;;9.56;26.30371;931.5058;;;;
2022/02/14 09:48:23;;;;;;;3.5;2.5;;;;;;;10.11;26.73535;931.4523;;;;
2022/02/14 09:50:57;;;;;;;5.8;2.6;;;;;;;10.39;26.46777;931.347;;;;
2022/02/14 09:53:27;;;;;;;4.9;3.2;;;;;;;11.56;25.80762;931.2753;;;;
2022/02/14 09:55:51;;;;;;;4.3;2.6;;;;;;;11.7;25.30078;931.3027;;;;
2022/02/14 09:58:19;;;;;;;2.8;2;;;;;;;11.58;25.64844;931.3254;;;;
2022/02/14 10:00:44;;;;;;;3.5;2.2;;;;;;;12.26;24.7832;931.2208;;;;
2022/02/14 10:03:14;;;;;;;3.8;2.3;;;;;;;11.97;23.72363;931.2671;;;;
2022/02/14 10:05:43;;;;;;;4.6;2.1;;;;;;;12.09;24.57813;931.2242;;;;
2022/02/14 10:08:09;;;;;;;4.1;2.2;;;;;;;12.6;25.10059;931.1236;;;;
2022/02/14 10:10:34;;;;;;;1.9;1.5;;;;;;;11.87;26.41016;931.0779;;;;
2022/02/14 10:13:00;;;;;;;4.6;2;;;;;;;11.56;27.84473;931.0712;;;;
2022/02/14 10:15:34;;;;;;;3.7;1.9;;;;;;;11.87;27.49805;931.0851;;;;
2022/02/14 10:18:01;;;;;;;3.7;1.7;;;;;;;12.17;26.35938;931.0583;;;;
2022/02/14 10:20:25;;;;;;;1.8;1.4;;;;;;;11.02;26.24414;931.0432;;;;
2022/02/14 10:22:53;;;;;;;2.4;1.7;;;;;;;11.12;28.36523;931.0068;;;;
2022/02/14 10:25:18;;;;;;;1.8;1.3;;;;;;;10.77;27.61035;930.9303;;;;
2022/02/14 10:27:45;;;;;;;4.3;1.9;;;;;;;10.36;26.43164;931.0335;;;;
2022/02/14 10:30:11;;;;;;;2.5;1.6;;;;;;;10.27;26.63184;931.0464;;;;
2022/02/14 10:32:37;;;;;;;3.5;1.6;;;;;;;10.19;26.76465;930.9679;;;;
2022/02/14 10:35:13;;;;;;;5;1.9;;;;;;;10.74;26.19238;930.8755;;;;
2022/02/14 10:37:42;;;;;;;6.1;1.9;;;;;;;11.78;27.98438;930.8077;;;;
2022/02/14 10:40:07;;;;;;;9.7;2.5;;;;;;;12.54;24.55859;930.741;;;;
2022/02/14 10:42:37;;;;;;;2.3;1.5;;;;;;;11.99;22.67188;930.6311;;;;
2022/02/14 10:45:11;;;;;;;1.9;1.5;;;;;;;11.79;24.41309;930.6428;;;;
2022/02/14 10:47:33;;;;;;;3.5;1.6;;;;;;;11.95;23.21875;930.5972;;;;
2022/02/14 10:49:57;;;;;;;2.5;1.5;;;;;;;11.18;24.24121;930.5826;;;;
2022/02/14 10:52:22;;;;;;;3.1;1.6;;;;;;;11.62;24.91797;930.4963;;;;
2022/02/14 10:54:51;;;;;;;4.3;2.1;;;;;;;11.64;25.64063;930.4626;;;;
2022/02/14 10:57:16;;;;;;;2.9;1.6;;;;;;;11.96;23.42578;930.4175;;;;
2022/02/14 10:59:47;;;;;;;3.6;1.8;;;;;;;12.43;24.64355;930.4116;;;;
2022/02/14 11:02:14;;;;;;;3.4;1.5;;;;;;;12.4;23.28906;930.3125;;;;
2022/02/14 11:04:44;;;;;;;3.7;2;;;;;;;13.2;21.74609;930.3028;;;;
2022/02/14 11:07:10;;;;;;;3.8;1.6;;;;;;;14.2;22.90137;930.2759;;;;
2022/02/14 11:09:43;;;;;;;6.9;2.5;;;;;;;14.06;21.21387;930.2031;;;;
2022/02/14 11:12:10;;;;;;;3.1;1.5;;;;;;;14.44;21.80762;930.1453;;;;
2022/02/14 11:14:40;;;;;;;5.4;2.7;;;;;;;14.27;21.38477;930.0869;;;;
2022/02/14 11:17:06;;;;;;;3.9;2.1;;;;;;;13.98;21.96875;929.908;;;;
2022/02/14 11:19:34;;;;;;;5.4;1.9;;;;;;;14.28;22.26074;930.0378;;;;
2022/02/14 11:22:03;;;;;;;8.2;4.2;;;;;;;14.7;20.8877;929.9194;;;;
2022/02/14 11:24:24;;;;;;;1.9;1.2;;;;;;;13.64;21.81445;929.8622;;;;
2022/02/14 11:26:55;;;;;;;2.2;1.6;;;;;;;13.32;21.94824;929.7704;;;;
2022/02/14 11:29:18;;;;;;;4.9;2.6;;;;;;;13.31;21.98145;929.6899;;;;
2022/02/14 11:31:47;;;;;;;2.6;1.4;;;;;;;13.14;22.09961;929.6047;;;;
2022/02/14 11:34:14;;;;;;;5.6;3.2;;;;;;;14.15;21.95508;929.5244;;;;
2022/02/14 11:36:42;;;;;;;7.5;3.4;;;;;;;15.63;20.73535;929.483;;;;
2022/02/14 11:39:12;;;;;;;3;1.8;;;;;;;16.86;19.14844;929.516;;;;
2022/02/14 11:41:42;;;;;;;6.4;2.6;;;;;;;17.13;18.85938;929.4713;;;;
2022/02/14 11:44:07;;;;;;;9.8;2.5;;;;;;;17.5;18.48145;929.4059;;;;
2022/02/14 11:46:36;;;;;;;3.1;1.6;;;;;;;19.05;17.46289;929.2853;;;;
2022/02/14 11:49:01;;;;;;;3.8;1.7;;;;;;;19.55;16.85352;929.1942;;;;
2022/02/14 11:51:42;;;;;;;3.6;1.8;;;;;;;19.72;17.08203;929.2227;;;;
2022/02/14 11:54:07;;;;;;;2.8;1.7;;;;;;;19.38;15.83398;929.2416;;;;
2022/02/14 11:56:33;;;;;;;5.7;1.7;;;;;;;19.7;16.11328;929.2217;;;;
2022/02/14 11:58:58;;;;;;;2.2;1.5;;;;;;;18.79;16.88281;929.1727;;;;
2022/02/14 12:01:23;;;;;;;3.9;2;;;;;;;20.09;16.33691;929.098;;;;
2022/02/14 12:03:51;;;;;;;14.6;2.9;;;;;;;20.08;15.99902;929.1286;;;;
2022/02/14 12:06:16;;;;;;;5.8;1.9;;;;;;;23.06;15.38965;929.0447;;;;
2022/02/14 12:08:46;;;;;;;2.4;1.8;;;;;;;22.2;14.14063;929.074;;;;
2022/02/14 12:11:11;;;;;;;1.5;1.4;;;;;;;19.17;15.86035;928.9598;;;;
2022/02/14 12:13:41;;;;;;;2;1.5;;;;;;;19.39;16.32324;928.9543;;;;
2022/02/14 12:21:19;;;;;;;6.7;2.1;;;;;;;21.38;15.63672;928.8729;;;;
2022/02/14 12:23:48;;;;;;;3.7;1.5;;;;;;;22.63;14.81152;928.7355;;;;
2022/02/14 12:26:18;;;;;;;3;2.1;;;;;;;21.38;15.50781;928.7994;;;;
2022/02/14 12:29:31;;;;;;;3.4;1.9;;;;;;;21.69;15.62305;928.6994;;;;
2022/02/14 12:31:18;;;;;;;3.2;1.8;;;;;;;22.34;14.69629;928.6794;;;;
2022/02/14 12:33:50;;;;;;;2.7;1.4;;;;;;;20.65;15.16602;928.6052;;;;
2022/02/14 12:36:20;;;;;;;3.3;1.8;;;;;;;19.96;16.69434;928.6474;;;;
2022/02/14 12:38:51;;;;;;;4.5;1.7;;;;;;;20.11;16.20996;928.6181;;;;
2022/02/14 12:41:17;;;;;;;2.7;1.5;;;;;;;20.31;16.4502;928.6074;;;;
2022/02/14 12:43:47;;;;;;;4.4;1.7;;;;;;;20.79;16.07129;928.5703;;;;
2022/02/14 12:46:17;;;;;;;4;1.5;;;;;;;20.94;15.46875;928.5098;;;;
2022/02/14 12:48:42;;;;;;;3.4;1.5;;;;;;;21.5;16.44824;928.4256;;;;
2022/02/14 12:51:10;;;;;;;4.9;1.9;;;;;;;21.33;15.6582;928.412;;;;
2022/02/14 12:53:35;;;;;;;2.4;1.6;;;;;;;21.36;15.83398;928.3147;;;;
2022/02/14 12:56:00;;;;;;;3.8;1.7;;;;;;;21.59;15.58496;928.2103;;;;
2022/02/14 12:58:25;;;;;;;3.9;1.7;;;;;;;20.92;16.40332;928.2155;;;;
2022/02/14 13:00:51;;;;;;;5.4;1.7;;;;;;;21.02;16.20801;928.2139;;;;
2022/02/14 13:03:16;;;;;;;3.7;1.6;;;;;;;20.75;15.50879;928.155;;;;
2022/02/14 13:05:41;;;;;;;4.7;1.7;;;;;;;19.94;16.98535;928.1456;;;;
2022/02/14 13:08:07;;;;;;;3.6;1.8;;;;;;;20.52;16.33008;928.1334;;;;
2022/02/14 13:10:32;;;;;;;2.7;1.4;;;;;;;20.17;16.59668;928.0009;;;;
2022/02/14 13:12:57;;;;;;;5.1;1.5;;;;;;;21.45;16.25879;927.9728;;;;
2022/02/14 13:15:23;;;;;;;2.6;1.5;;;;;;;21.58;15.15137;927.9705;;;;
2022/02/14 13:17:52;;;;;;;2.5;1.5;;;;;;;21.89;15.43164;927.9653;;;;
2022/02/14 13:20:25;;;;;;;6.1;2.2;;;;;;;22.06;15.89453;927.9617;;;;
2022/02/14 13:22:50;;;;;;;6.3;2;;;;;;;22.03;15.82324;927.9769;;;;
2022/02/14 13:25:21;;;;;;;2.4;1.5;;;;;;;21.25;15.81934;927.968;;;;
2022/02/14 13:27:45;;;;;;;3.1;1.4;;;;;;;19.45;16.58203;927.949;;;;
2022/02/14 13:30:14;;;;;;;6.4;1.7;;;;;;;19.05;17.77734;927.9144;;;;
2022/02/14 13:32:45;;;;;;;4.3;2.1;;;;;;;18;18.50195;927.9447;;;;
2022/02/14 13:35:10;;;;;;;3.3;1.5;;;;;;;18.95;17.75;927.8552;;;;
2022/02/14 13:37:40;;;;;;;3.8;2.1;;;;;;;17.65;18.5332;927.9136;;;;
2022/02/14 13:40:15;;;;;;;3.2;1.6;;;;;;;18.05;18.24902;927.8923;;;;
2022/02/14 13:42:40;;;;;;;3.7;1.6;;;;;;;20.03;17.85254;927.7883;;;;
2022/02/14 13:45:06;;;;;;;2.8;1.8;;;;;;;20.65;16.37012;927.8106;;;;
2022/02/14 13:47:34;;;;;;;4;2;;;;;;;19.98;17.06836;927.7628;;;;
2022/02/14 13:50:07;;;;;;;3;1.9;;;;;;;19.84;17.03906;927.7776;;;;
2022/02/14 13:52:35;;;;;;;2.8;1.7;;;;;;;19.95;17.33496;927.7527;;;;
2022/02/14 13:55:00;;;;;;;4.7;2.1;;;;;;;20.26;16.8457;927.7129;;;;
2022/02/14 13:57:30;;;;;;;7.3;2.3;;;;;;;22.69;15.71777;927.6386;;;;
2022/02/14 13:59:55;;;;;;;3;1.5;;;;;;;23.86;15.13477;927.6853;;;;
2022/02/14 14:02:23;;;;;;;4.7;1.7;;;;;;;21.53;16.58984;927.6958;;;;
2022/02/14 14:04:51;;;;;;;2.3;1.5;;;;;;;21.32;16.09082;927.6588;;;;
2022/02/14 14:07:16;;;;;;;3.2;1.7;;;;;;;22.72;15.20215;927.5905;;;;
2022/02/14 14:09:41;;;;;;;3;1.7;;;;;;;21.5;15.96875;927.6607;;;;
2022/02/14 14:12:15;;;;;;;5.6;2.4;;;;;;;23.39;15.71875;927.603;;;;
2022/02/14 14:14:40;;;;;;;2.8;1.8;;;;;;;21.92;15.63184;927.5478;;;;
2022/02/14 14:17:07;;;;;;;2.7;1.9;;;;;;;21.75;16.71484;927.6316;;;;
2022/02/14 14:19:36;;;;;;;2.5;1.8;;;;;;;20.57;16.85742;927.613;;;;
2022/02/14 14:22:01;;;;;;;4.7;2;;;;;;;20.46;18.0332;927.5541;;;;
2022/02/14 14:24:31;;;;;;;5.1;2;;;;;;;21.07;16.94727;927.5553;;;;
2022/02/14 14:26:57;;;;;;;5.2;3.3;;;;;;;21.18;17.12598;927.5492;;;;
2022/02/14 14:29:24;;;;;;;6.5;2.2;;;;;;;20.42;18.26465;927.5322;;;;
2022/02/14 14:31:53;;;;;;;4.8;1.8;;;;;;;19.55;18.84668;927.606;;;;
2022/02/14 14:34:26;;;;;;;2.8;1.4;;;;;;;16.95;22.28125;927.5519;;;;
2022/02/14 14:36:54;;;;;;;2;1.6;;;;;;;18.22;22.00879;927.5142;;;;
2022/02/14 14:39:25;;;;;;;4.8;2.1;;;;;;;18.73;20.77832;927.5594;;;;